Flight Track Log - Related Links

Times and Time Zones

All times are in EDT time to prevent confusion due to time zone crossing. See the SWA1516 flight status page for this flight to view local times or setup timezone preferences in your user account.

Time Position Orientation Groundspeed Altitude Reporting Facility
EDT Latitude Longitude Course Direction KTS MPH feet Rate Location/Type
Thu 02:33:32 PM 33.4333 -112.0500 248° West 173 199 2,500  Level Phoenix TRACON
Thu 02:34:32 PM 33.4167 -112.1000 248° West 211 243 3,900 1,706 Climbing Phoenix TRACON
Thu 02:35:14 PM 33.4031 -112.1467 251° West 226 260 5,400 2,365 Climbing Albuquerque Center
Thu 02:36:16 PM 33.3572 -112.1467 180° South 257 296 8,000 2,585 Climbing Albuquerque Center
Thu 02:37:17 PM 33.3386 -112.0389 102° East 278 320 10,700 2,537 Climbing Albuquerque Center
Thu 02:38:19 PM 33.3311 -111.9253 94° East 344 396 13,200 2,710 Climbing Albuquerque Center
Thu 02:39:21 PM 33.3600 -111.8117 73° East 361 415 16,300 2,710 Climbing Albuquerque Center
Thu 02:40:23 PM 33.3919 -111.6914 72° East 376 433 18,800 2,371 Climbing Albuquerque Center
Thu 02:41:25 PM 33.4258 -111.5636 72° East 396 456 21,200 2,419 Climbing Albuquerque Center
Thu 02:42:27 PM 33.4669 -111.4033 73° East 417 480 23,800 2,195 Climbing Albuquerque Center
Thu 02:43:28 PM 33.5031 -111.2636 73° East 435 501 25,700 1,854 Climbing Albuquerque Center
Thu 02:44:30 PM 33.5325 -111.1172 76° East 451 519 27,600 1,694 Climbing Albuquerque Center
Thu 02:45:32 PM 33.5489 -110.9647 83° East 462 532 29,200 1,403 Climbing Albuquerque Center
Thu 02:46:34 PM 33.5806 -110.8117 76° East 470 541 30,500 1,415 Climbing Albuquerque Center
Thu 02:47:35 PM 33.6275 -110.6611 69° East 479 551 32,100 1,561 Climbing Albuquerque Center
Thu 02:48:37 PM 33.6803 -110.4789 71° East 484 557 33,700 1,306 Climbing Albuquerque Center
Thu 02:49:39 PM 33.7197 -110.3453 70° East 487 560 34,800 1,355 Climbing Albuquerque Center
Thu 02:50:41 PM 33.7725 -110.1606 71° East 489 563 36,500 1,065 Climbing Albuquerque Center
Thu 02:51:43 PM 33.8169 -110.0100 70° East 486 559 37,000 244 Climbing Albuquerque Center
Thu 02:52:44 PM 33.8603 -109.8594 71° East 481 554 37,000  Level Albuquerque Center
Thu 02:53:46 PM 33.9044 -109.7089 70° East 480 552 37,000  Level Albuquerque Center
Thu 02:54:48 PM 33.9478 -109.5569 71° East 481 554 37,000  Level Albuquerque Center
Thu 02:55:50 PM 33.9911 -109.4047 71° East 482 555 37,000  Level Albuquerque Center
Thu 02:56:52 PM 34.0431 -109.2211 71° East 484 557 37,000  Level Albuquerque Center
Thu 02:57:53 PM 34.0856 -109.0681 71° East 484 557 37,000  Level Albuquerque Center
Thu 02:58:55 PM 34.1286 -108.9167 71° East 482 555 37,000  Level Albuquerque Center
Thu 02:59:57 PM 34.1700 -108.7686 71° East 476 548 37,000  Level Albuquerque Center
Thu 03:00:59 PM 34.2119 -108.6172 71° East 477 549 37,000  Level Albuquerque Center
Thu 03:02:01 PM 34.2542 -108.4647 71° East 480 552 37,000  Level Albuquerque Center
Thu 03:03:03 PM 34.3036 -108.2831 72° East 479 551 37,000  Level Albuquerque Center
Thu 03:04:04 PM 34.3439 -108.1381 71° East 476 548 37,000  Level Albuquerque Center
Thu 03:05:06 PM 34.3853 -107.9864 72° East 476 548 37,000  Level Albuquerque Center
Thu 03:06:08 PM 34.4253 -107.8344 72° East 476 548 37,000  Level Albuquerque Center
Thu 03:07:10 PM 34.4664 -107.6842 72° East 473 544 37,000  Level Albuquerque Center
Thu 03:08:12 PM 34.5153 -107.5014 72° East 475 547 37,000  Level Albuquerque Center
Thu 03:09:13 PM 34.5536 -107.3514 73° East 471 542 37,000  Level Albuquerque Center
Thu 03:10:15 PM 34.5942 -107.2006 72° East 472 543 37,000  Level Albuquerque Center
Thu 03:11:17 PM 34.6333 -107.0514 72° East 470 541 37,000  Level Albuquerque Center
Thu 03:12:19 PM 34.6717 -106.9003 73° East 471 542 37,000  Level Albuquerque Center
Thu 03:13:21 PM 34.7094 -106.7481 73° East 475 547 37,000  Level Albuquerque Center
Thu 03:14:22 PM 34.7575 -106.5661 72° East 477 549 37,000  Level Albuquerque Center
Thu 03:15:24 PM 34.7961 -106.4114 73° East 480 552 37,000  Level Albuquerque Center
Thu 03:16:26 PM 34.8356 -106.2567 73° East 481 554 37,000  Level Albuquerque Center
Thu 03:17:28 PM 34.8750 -106.1028 73° East 480 552 37,000  Level Albuquerque Center
Thu 03:18:30 PM 34.9125 -105.9469 74° East 480 552 37,000  Level Albuquerque Center
Thu 03:19:32 PM 34.9569 -105.7689 73° East 479 551 37,000  Level Albuquerque Center
Thu 03:20:34 PM 34.9961 -105.6131 73° East 478 550 37,000  Level Albuquerque Center
Thu 03:21:35 PM 35.0353 -105.4564 73° East 479 551 37,000  Level Albuquerque Center
Thu 03:22:37 PM 35.0747 -105.3008 73° East 476 548 37,000  Level Albuquerque Center
Thu 03:23:39 PM 35.1119 -105.1439 74° East 476 548 37,000  Level Albuquerque Center
Thu 03:24:41 PM 35.1569 -104.9619 73° East 475 547 37,000  Level Albuquerque Center
Thu 03:25:43 PM 35.1933 -104.8058 74° East 472 543 37,000  Level Albuquerque Center
Thu 03:26:45 PM 35.2308 -104.6486 74° East 476 548 37,000  Level Albuquerque Center
Thu 03:27:48 PM 35.2683 -104.4997 73° East 478 550 37,000  Level Albuquerque Center
Thu 03:28:48 PM 35.3042 -104.3444 74° East 477 549 37,000  Level Albuquerque Center
Thu 03:29:50 PM 35.3444 -104.1722 74° East 473 544 37,000  Level Albuquerque Center
Thu 03:30:52 PM 35.3811 -104.0119 74° East 476 548 37,000  Level Albuquerque Center
Thu 03:31:54 PM 35.4178 -103.8536 74° East 476 548 37,000  Level Albuquerque Center
Thu 03:32:55 PM 35.4542 -103.6958 74° East 476 548 37,000  Level Albuquerque Center
Thu 03:33:57 PM 35.4900 -103.5372 74° East 477 549 37,000  Level Albuquerque Center
Thu 03:34:59 PM 35.5247 -103.3797 75° East 476 548 37,000  Level Albuquerque Center
Thu 03:36:01 PM 35.5606 -103.2236 74° East 472 543 37,000  Level Albuquerque Center
Thu 03:37:03 PM 35.6011 -103.0419 75° East 470 541 37,000  Level Albuquerque Center
Thu 03:38:04 PM 35.6353 -102.8844 75° East 467 537 37,000  Level Albuquerque Center
Thu 03:39:06 PM 35.6689 -102.7308 75° East 465 535 37,000  Level Albuquerque Center
Thu 03:40:08 PM 35.7044 -102.5769 74° East 466 536 37,000  Level Albuquerque Center
Thu 03:41:10 PM 35.7375 -102.4211 75° East 469 540 37,000  Level Albuquerque Center
Thu 03:42:12 PM 35.7711 -102.2658 75° East 469 540 37,000  Level Albuquerque Center
Thu 03:43:14 PM 35.8039 -102.1086 76° East 472 543 37,000  Level Albuquerque Center
Thu 03:44:15 PM 35.8369 -101.9517 75° East 471 542 37,000  Level Albuquerque Center
Thu 03:45:17 PM 35.8706 -101.7936 75° East 474 545 37,000  Level Albuquerque Center
Thu 03:46:19 PM 35.9100 -101.6039 76° East 475 547 37,000  Level Albuquerque Center
Thu 03:47:21 PM 35.9436 -101.4467 75° East 474 545 37,000  Level Albuquerque Center
Thu 03:48:23 PM 35.9764 -101.2872 76° East 476 548 37,000 532 Level Albuquerque Center
Thu 03:49:25 PM 36.0089 -101.1258 76° East 481 554 38,100 919 Climbing Albuquerque Center
Thu 03:50:27 PM 36.0411 -100.9694 76° East 483 556 38,900 435 Climbing Albuquerque Center
Thu 03:51:29 PM 36.0731 -100.8078 76° East 484 557 39,000 48 Climbing Albuquerque Center
Thu 03:52:31 PM 36.1119 -100.6144 76° East 482 555 39,000  Level Albuquerque Center
Thu 03:53:33 PM 36.1433 -100.4531 76° East 481 554 39,000  Level Albuquerque Center
Thu 03:54:35 PM 36.1764 -100.2928 76° East 480 552 39,000  Level Albuquerque Center
Thu 03:55:25 PM 36.2017 -100.1653 76° East 478 550 39,000  Level Kansas City Center
Thu 03:56:27 PM 36.2331 -100.0047 76° East 477 549 39,000  Level Kansas City Center
Thu 03:57:29 PM 36.2636 -99.8450 77° East 475 547 39,000  Level Kansas City Center
Thu 03:58:31 PM 36.2947 -99.6856 76° East 475 547 39,000  Level Kansas City Center
Thu 03:59:33 PM 36.3244 -99.5267 77° East 469 540 39,000  Level Kansas City Center
Thu 04:00:35 PM 36.3606 -99.3328 77° East 473 544 39,000  Level Kansas City Center
Thu 04:01:37 PM 36.3914 -99.1697 77° East 477 549 39,000  Level Kansas City Center
Thu 04:02:39 PM 36.4217 -99.0069 77° East 479 551 39,000  Level Kansas City Center
Thu 04:03:41 PM 36.4514 -98.8442 77° East 479 551 39,000  Level Kansas City Center
Thu 04:04:43 PM 36.4817 -98.6817 77° East 479 551 39,000  Level Kansas City Center
Thu 04:05:46 PM 36.5100 -98.5183 78° East 480 552 39,000  Level Kansas City Center
Thu 04:06:48 PM 36.5400 -98.3556 77° East 481 554 39,000  Level Kansas City Center
Thu 04:07:50 PM 36.5686 -98.1906 78° East 484 557 39,000  Level Kansas City Center
Thu 04:08:52 PM 36.6042 -97.9931 77° East 486 559 39,000  Level Kansas City Center
Thu 04:09:54 PM 36.6322 -97.8269 78° East 488 562 39,000  Level Kansas City Center
Thu 04:10:56 PM 36.6603 -97.6592 78° East 488 562 39,000  Level Kansas City Center
Thu 04:11:58 PM 36.6894 -97.4919 78° East 491 565 39,000  Level Kansas City Center
Thu 04:13:00 PM 36.7181 -97.3228 78° East 493 567 39,000  Level Kansas City Center
Thu 04:14:02 PM 36.7467 -97.1547 78° East 494 568 39,000  Level Kansas City Center
Thu 04:15:04 PM 36.7775 -96.9717 78° East 493 567 39,000  Level Kansas City Center
Thu 04:16:06 PM 36.8047 -96.8019 79° East 497 572 39,000  Level Kansas City Center
Thu 04:17:08 PM 36.8333 -96.6317 78° East 499 574 39,000  Level Kansas City Center
Thu 04:18:10 PM 36.8608 -96.4614 79° East 498 573 39,000  Level Kansas City Center
Thu 04:19:12 PM 36.8872 -96.2883 79° East 503 579 39,000  Level Kansas City Center
Thu 04:20:14 PM 36.9211 -96.0781 79° East 509 586 39,000  Level Kansas City Center
Thu 04:21:17 PM 36.9494 -95.9025 79° East 510 587 39,000  Level Kansas City Center
Thu 04:22:18 PM 36.9767 -95.7269 79° East 510 587 39,000  Level Kansas City Center
Thu 04:23:20 PM 37.0039 -95.5503 79° East 511 588 39,000  Level Kansas City Center
Thu 04:24:22 PM 37.0306 -95.3764 79° East 507 583 39,000  Level Kansas City Center
Thu 04:25:24 PM 37.0578 -95.2006 79° East 510 587 39,000  Level Kansas City Center
Thu 04:26:26 PM 37.0842 -95.0253 79° East 510 587 39,000  Level Kansas City Center
Thu 04:27:29 PM 37.1111 -94.8456 79° East 517 595 39,000  Level Kansas City Center
Thu 04:28:31 PM 37.1397 -94.6283 81° East 523 602 39,000 -387 Level Kansas City Center
Thu 04:29:33 PM 37.1661 -94.4489 79° East 523 602 38,200 -823 Descending Kansas City Center
Thu 04:30:35 PM 37.1925 -94.2667 80° East 527 606 37,300 -581 Descending Kansas City Center
Thu 04:31:37 PM 37.2194 -94.0694 80° East 532 612 37,000 -145 Descending Kansas City Center
Thu 04:32:39 PM 37.2464 -93.8883 79° East 529 609 37,000  Level Kansas City Center
Thu 04:33:41 PM 37.2714 -93.7053 80° East 531 611 37,000  Level Kansas City Center
Thu 04:34:43 PM 37.2975 -93.5200 80° East 536 617 37,000  Level Kansas City Center
Thu 04:35:45 PM 37.3219 -93.3317 81° East 543 625 37,000  Level Kansas City Center
Thu 04:36:47 PM 37.3469 -93.1467 80° East 542 624 37,000  Level Kansas City Center
Thu 04:37:49 PM 37.3764 -92.9217 81° East 544 626 37,000  Level Kansas City Center
Thu 04:38:51 PM 37.4008 -92.7353 81° East 543 625 37,000  Level Kansas City Center
Thu 04:39:53 PM 37.4247 -92.5489 81° East 543 625 37,000  Level Kansas City Center
Thu 04:40:55 PM 37.4481 -92.3639 81° East 541 623 37,000  Level Kansas City Center
Thu 04:41:57 PM 37.4714 -92.1794 81° East 540 621 37,000  Level Kansas City Center
Thu 04:42:59 PM 37.4981 -91.9633 81° East 533 613 37,000  Level Kansas City Center
Thu 04:44:01 PM 37.5200 -91.7875 81° East 523 602 37,000  Level Kansas City Center
Thu 04:45:03 PM 37.5397 -91.6136 82° East 514 592 37,000  Level Kansas City Center
Thu 04:46:05 PM 37.5592 -91.4394 82° East 508 585 37,000  Level Kansas City Center
Thu 04:47:07 PM 37.5800 -91.2647 81° East 506 582 37,000  Level Kansas City Center
Thu 04:48:09 PM 37.5997 -91.0900 82° East 505 581 37,000  Level Kansas City Center
Thu 04:49:11 PM 37.6222 -90.8861 82° East 504 580 37,000  Level Kansas City Center
Thu 04:50:13 PM 37.6408 -90.7200 82° East 490 564 37,000  Level Kansas City Center
Thu 04:51:15 PM 37.6594 -90.5528 82° East 486 559 37,000  Level Kansas City Center
Thu 04:52:17 PM 37.6764 -90.3881 83° East 481 554 37,000  Level Kansas City Center
Thu 04:53:19 PM 37.6936 -90.2264 82° East 473 544 37,000  Level Kansas City Center
Thu 04:54:22 PM 37.7142 -90.0322 82° East 469 540 37,000  Level Kansas City Center
Thu 04:55:24 PM 37.7308 -89.8719 82° East 466 536 37,000  Level Kansas City Center
Thu 04:56:26 PM 37.7472 -89.7094 83° East 466 536 37,000  Level Kansas City Center
Thu 04:57:28 PM 37.7639 -89.5464 83° East 469 540 37,000 -532 Level Kansas City Center
Thu 04:58:30 PM 37.7886 -89.3617 80° East 466 536 35,900 -1,016 Descending Kansas City Center
Thu 04:59:32 PM 37.8219 -89.1986 75° East 474 545 34,900 -968 Descending Kansas City Center
Thu 05:00:34 PM 37.8583 -89.0308 75° East 470 541 33,900 -871 Descending Kansas City Center
Thu 05:01:36 PM 37.8911 -88.8711 75° East 468 539 33,100 -1,355 Descending Kansas City Center
Thu 05:02:38 PM 37.9272 -88.7111 74° East 470 541 31,100 -1,790 Descending Kansas City Center
Thu 05:03:40 PM 37.9628 -88.5592 73° East 475 547 29,400 -1,016 Descending Kansas City Center
Thu 05:04:42 PM 38.0050 -88.3586 75° East 485 558 29,000 -194 Descending Kansas City Center
Thu 05:05:44 PM 38.0406 -88.1908 75° East 491 565 29,000 -242 Level Kansas City Center
Thu 05:06:46 PM 38.0739 -88.0211 76° East 493 567 28,500 -677 Descending Kansas City Center
Thu 05:07:48 PM 38.0900 -87.8486 83° East 489 563 27,600 -919 Descending Kansas City Center
Thu 05:08:50 PM 38.1094 -87.6733 82° East 496 571 26,600 -957 Descending Kansas City Center
Thu 05:10:06 PM 38.1336 -87.4658 82° East 498 573 25,400 -1,043 Descending Indianapolis Center
Thu 05:11:08 PM 38.1556 -87.2597 82° East 495 570 24,200 -1,065 Descending Indianapolis Center
Thu 05:12:10 PM 38.1722 -87.0931 83° East 487 560 23,200 -1,597 Descending Indianapolis Center
Thu 05:13:12 PM 38.1883 -86.9317 83° East 474 545 20,900 -3,000 Descending Indianapolis Center
Thu 05:14:14 PM 38.2039 -86.7753 83° East 456 525 17,000 -4,210 Descending Indianapolis Center
Thu 05:15:16 PM 38.2225 -86.5917 83° East 439 505 12,200 -2,855 Descending Indianapolis Center
Thu 05:16:18 PM 38.2228 -86.4553 90° East 386 444 11,100 -1,016 Descending Indianapolis Center
Thu 05:17:20 PM 38.2264 -86.3358 88° East 339 390 10,100 -1,258 Descending Indianapolis Center
Thu 05:18:22 PM 38.2469 -86.2261 77° East 321 369 8,500 -1,645 Descending Indianapolis Center
Thu 05:19:24 PM 38.2694 -86.1225 75° East 310 357 6,700 -1,632 Descending Indianapolis Center
Thu 05:20:27 PM 38.2892 -86.0250 76° East 293 337 5,100 -1,728 Descending Indianapolis Center
Thu 05:21:29 PM 38.3094 -85.9367 74° East 269 310 3,100 -1,210 Descending Indianapolis Center
Thu 05:22:31 PM 38.3000 -85.8564 99° East 195 224 2,600 -242 Descending Indianapolis Center
Thu 05:23:33 PM 38.2906 -85.7989 102° East 176 203 2,600 -290 Level Indianapolis Center
Thu 05:24:35 PM 38.2636 -85.7572 129° Southeast 180 207 2,000 -484 Descending Indianapolis Center
Thu 05:25:37 PM 38.2139 -85.7442 168° South 174 200 1,600 -387 Descending Indianapolis Center
Thu 05:27:00 PM 38.1741 -85.7365 122° Southeast  Level Estimated
Thu 05:34:00 PM 38.1741 -85.7365 122° Southeast  Level Estimated

Login

Don't have an account? Register now (free) for customized features, flight alerts, and more!